createdAt,value
2023-03-15T00:02:00.792Z,6.40
2023-03-15T00:07:02.345Z,6.10
2023-03-15T00:12:04.185Z,6.10
2023-03-15T00:17:05.842Z,5.20
2023-03-15T00:22:07.909Z,4.55
2023-03-15T00:27:09.720Z,5.47
2023-03-15T00:32:11.506Z,6.85
2023-03-15T00:37:17.021Z,4.70
2023-03-15T00:42:18.603Z,6.45
2023-03-15T00:47:20.439Z,6.05
2023-03-15T00:52:22.431Z,5.13
2023-03-15T00:57:24.629Z,3.70
2023-03-15T01:02:26.302Z,6.10
2023-03-15T01:07:28.049Z,3.40
2023-03-15T01:12:32.635Z,5.35
2023-03-15T01:17:34.770Z,6.68
2023-03-15T01:22:36.941Z,3.15
2023-03-15T01:27:38.547Z,4.13
2023-03-15T01:32:40.700Z,4.28
2023-03-15T01:37:42.351Z,4.55
2023-03-15T01:43:02.430Z,5.32
2023-03-15T01:48:04.656Z,4.95
2023-03-15T01:53:06.724Z,4.15
2023-03-15T01:58:10.479Z,5.28
2023-03-15T02:03:35.011Z,5.35
2023-03-15T02:08:43.617Z,5.32
2023-03-15T02:13:48.466Z,5.32
2023-03-15T02:18:50.409Z,4.93
2023-03-15T02:24:05.933Z,3.78
2023-03-15T02:29:07.966Z,6.05
2023-03-15T02:34:09.899Z,5.25
2023-03-15T02:39:20.988Z,6.70
2023-03-15T02:44:29.225Z,8.20
2023-03-15T02:49:37.451Z,6.97
2023-03-15T02:54:43.307Z,5.73
2023-03-15T02:59:44.945Z,5.80
2023-03-15T03:04:47.824Z,8.93
2023-03-15T03:09:49.727Z,7.22
2023-03-15T03:14:52.767Z,9.15
2023-03-15T03:20:13.623Z,8.13
2023-03-15T03:25:19.670Z,8.87
2023-03-15T03:30:22.887Z,9.85
2023-03-15T03:35:26.656Z,9.68
2023-03-15T03:40:29.676Z,12.93
2023-03-15T03:45:31.254Z,7.63
2023-03-15T03:50:34.559Z,8.40
2023-03-15T03:55:37.981Z,10.10
2023-03-15T04:00:40.100Z,6.25
2023-03-15T04:05:42.715Z,10.95
2023-03-15T04:10:49.253Z,12.15
2023-03-15T04:15:51.718Z,7.68
2023-03-15T04:20:54.766Z,9.35
2023-03-15T04:25:58.166Z,7.32
2023-03-15T04:31:29.096Z,6.90
2023-03-15T04:36:49.341Z,6.88
2023-03-15T04:42:05.946Z,6.72
2023-03-15T04:47:26.492Z,8.40
2023-03-15T04:52:45.276Z,8.20
2023-03-15T04:58:00.342Z,5.85
2023-03-15T05:03:30.117Z,6.43
2023-03-15T05:08:40.779Z,7.78
2023-03-15T05:14:03.075Z,5.05
2023-03-15T05:19:13.229Z,9.05
2023-03-15T05:24:37.998Z,5.78
2023-03-15T05:29:55.475Z,8.30
2023-03-15T05:35:33.783Z,5.28
2023-03-15T05:41:06.763Z,6.65
2023-03-15T05:46:22.839Z,8.85
2023-03-15T05:51:44.317Z,7.10
2023-03-15T05:57:06.554Z,9.48
2023-03-15T06:02:29.075Z,9.02
2023-03-15T06:07:47.804Z,8.18
2023-03-15T06:12:52.215Z,10.00
2023-03-15T06:17:53.941Z,10.50
2023-03-15T06:22:55.559Z,9.73
2023-03-15T06:28:11.320Z,11.48
2023-03-15T06:33:17.997Z,10.63
2023-03-15T06:38:22.050Z,7.38
2023-03-15T06:43:23.818Z,7.93
2023-03-15T06:48:26.385Z,6.22
2023-03-15T06:53:28.190Z,7.45
2023-03-15T06:58:29.928Z,6.43
2023-03-15T07:03:31.444Z,5.53
2023-03-15T07:08:33.004Z,7.22
2023-03-15T07:13:34.575Z,6.72
2023-03-15T07:18:36.085Z,5.53
2023-03-15T07:23:39.758Z,4.20
2023-03-15T07:28:41.329Z,5.15
2023-03-15T07:33:43.067Z,7.45
2023-03-15T07:38:44.575Z,6.78
2023-03-15T07:43:46.193Z,4.82
2023-03-15T07:48:52.848Z,3.45
2023-03-15T07:53:54.402Z,6.32
2023-03-15T07:58:55.953Z,6.97
2023-03-15T08:03:57.624Z,5.28
2023-03-15T08:09:06.629Z,6.50
2023-03-15T08:14:10.926Z,4.63
2023-03-15T08:19:12.469Z,5.22
2023-03-15T08:24:16.520Z,3.03
2023-03-15T08:29:18.079Z,6.20
2023-03-15T08:34:19.715Z,5.10
2023-03-15T08:39:24.181Z,5.45
2023-03-15T08:44:25.771Z,6.25
2023-03-15T08:49:27.255Z,4.60
2023-03-15T08:54:28.851Z,4.35
2023-03-15T08:59:32.824Z,4.53
2023-03-15T09:04:34.375Z,4.53
2023-03-15T09:09:40.944Z,4.78
2023-03-15T09:14:47.706Z,5.97
2023-03-15T09:19:49.228Z,3.50
2023-03-15T09:24:52.618Z,3.75
2023-03-15T09:29:54.196Z,4.97
2023-03-15T09:34:55.732Z,7.03
2023-03-15T09:39:57.273Z,4.70
2023-03-15T09:45:19.750Z,5.13
2023-03-15T09:50:33.934Z,6.05
2023-03-15T09:55:42.472Z,4.45
2023-03-15T10:00:47.743Z,2.92
2023-03-15T10:05:58.612Z,2.88
2023-03-15T10:11:34.186Z,6.25
2023-03-15T10:16:51.053Z,3.22
2023-03-15T10:22:21.114Z,3.45
2023-03-15T10:27:32.066Z,3.13
2023-03-15T10:32:40.825Z,3.95
2023-03-15T10:37:43.722Z,4.68
2023-03-15T10:42:47.113Z,5.22
2023-03-15T10:47:57.600Z,2.63
2023-03-15T10:53:08.822Z,2.83
2023-03-15T10:58:27.667Z,3.95
2023-03-15T11:03:31.201Z,2.72
2023-03-15T11:08:41.437Z,1.55
2023-03-15T11:13:58.494Z,3.45
2023-03-15T11:19:02.050Z,3.22
2023-03-15T11:24:23.107Z,3.03
2023-03-15T11:29:37.074Z,3.55
2023-03-15T11:34:44.487Z,3.33
2023-03-15T11:40:12.098Z,3.42
2023-03-15T11:45:37.104Z,4.75
2023-03-15T11:50:59.328Z,3.15
2023-03-15T11:56:24.185Z,3.08
2023-03-15T12:01:27.001Z,5.03
2023-03-15T12:06:39.166Z,3.60
2023-03-15T12:11:42.582Z,3.50
2023-03-15T12:16:46.436Z,4.15
2023-03-15T12:21:54.415Z,3.25
2023-03-15T12:27:03.200Z,3.67
2023-03-15T12:32:14.118Z,1.98
2023-03-15T12:37:22.756Z,1.85
2023-03-15T12:42:33.102Z,0.88
2023-03-15T12:47:44.613Z,2.08
2023-03-15T12:52:47.401Z,2.83
2023-03-15T12:57:53.972Z,3.00
2023-03-15T13:03:16.769Z,2.22
2023-03-15T13:08:23.851Z,1.60
2023-03-15T13:13:49.790Z,4.00
2023-03-15T13:19:14.164Z,3.92
2023-03-15T13:24:42.654Z,2.60
2023-03-15T13:29:44.393Z,2.88
2023-03-15T13:34:47.166Z,1.83
2023-03-15T13:40:03.986Z,3.65
2023-03-15T13:45:17.199Z,2.72
2023-03-15T13:50:20.921Z,4.50
2023-03-15T13:55:25.179Z,3.03
2023-03-15T14:00:27.154Z,3.58
2023-03-15T14:05:32.916Z,4.97
2023-03-15T14:10:39.050Z,3.42
2023-03-15T14:15:46.649Z,3.38
2023-03-15T14:21:00.743Z,6.13
2023-03-15T14:26:05.801Z,5.63
2023-03-15T14:31:07.599Z,2.90
2023-03-15T14:36:23.833Z,4.45
2023-03-15T14:41:28.201Z,6.63
2023-03-15T14:46:32.945Z,4.47
2023-03-15T14:51:34.509Z,4.13
2023-03-15T14:56:37.143Z,4.28
2023-03-15T15:01:40.534Z,5.40
2023-03-15T15:06:51.495Z,2.70
2023-03-15T15:11:54.044Z,2.65
2023-03-15T15:16:55.918Z,3.03
2023-03-15T15:21:57.798Z,3.10
2023-03-15T15:26:59.505Z,4.15
2023-03-15T15:32:01.103Z,3.72
2023-03-15T15:37:02.702Z,2.67
2023-03-15T15:42:04.502Z,2.53
2023-03-15T15:47:06.419Z,2.78
2023-03-15T15:52:12.095Z,2.42
2023-03-15T15:57:14.385Z,3.65
2023-03-15T16:02:22.160Z,2.55
2023-03-15T16:07:24.801Z,4.65
2023-03-15T16:12:27.164Z,3.35
2023-03-15T16:17:29.458Z,3.50
2023-03-15T16:22:31.798Z,3.75
2023-03-15T16:27:33.381Z,2.63
2023-03-15T16:32:43.815Z,2.78
2023-03-15T16:37:46.584Z,3.88
2023-03-15T16:42:49.498Z,2.80
2023-03-15T16:47:51.615Z,2.17
2023-03-15T16:52:56.765Z,2.80
2023-03-15T16:58:00.695Z,2.63
2023-03-15T17:03:04.423Z,3.55
2023-03-15T17:08:06.111Z,3.38
2023-03-15T17:13:09.129Z,3.90
2023-03-15T17:18:18.197Z,3.88
2023-03-15T17:23:21.324Z,3.43
2023-03-15T17:28:23.246Z,5.38
2023-03-15T17:33:26.099Z,3.70
2023-03-15T17:38:32.863Z,7.93
2023-03-15T17:43:36.681Z,4.93
2023-03-15T17:48:38.531Z,4.25
2023-03-15T17:53:40.048Z,3.90
2023-03-15T17:58:46.667Z,3.30
2023-03-15T18:03:49.173Z,3.25
2023-03-15T18:08:51.062Z,6.45
2023-03-15T18:13:52.884Z,14.32
2023-03-15T18:18:54.455Z,9.13
2023-03-15T18:23:56.199Z,11.73
2023-03-15T18:28:57.724Z,10.00
2023-03-15T18:34:00.688Z,10.95
2023-03-15T18:39:02.423Z,8.52
2023-03-15T18:44:04.041Z,8.23
2023-03-15T18:49:05.894Z,9.65
2023-03-15T18:54:07.438Z,9.52
2023-03-15T18:59:08.987Z,10.55
2023-03-15T19:04:11.178Z,8.40
2023-03-15T19:09:12.942Z,7.60
2023-03-15T19:14:14.482Z,7.75
2023-03-15T19:19:16.598Z,7.82
2023-03-15T19:24:18.181Z,9.43
2023-03-15T19:29:22.086Z,6.57
2023-03-15T19:34:24.758Z,8.30
2023-03-15T19:39:26.282Z,7.18
2023-03-15T19:44:28.293Z,5.57
2023-03-15T19:49:29.828Z,4.70
2023-03-15T19:54:33.999Z,4.85
2023-03-15T19:59:39.987Z,7.57
2023-03-15T20:04:41.681Z,6.40
2023-03-15T20:09:43.364Z,5.03
2023-03-15T20:14:44.941Z,7.80
2023-03-15T20:19:47.127Z,5.25
2023-03-15T20:24:50.019Z,4.85
2023-03-15T20:29:51.936Z,5.22
2023-03-15T20:34:57.589Z,6.80
2023-03-15T20:39:59.139Z,4.00
2023-03-15T20:45:00.811Z,6.93
2023-03-15T20:50:03.125Z,9.75
2023-03-15T20:55:06.105Z,10.05
2023-03-15T21:00:18.843Z,10.27
2023-03-15T21:05:20.465Z,7.78
2023-03-15T21:10:22.237Z,10.85
2023-03-15T21:15:24.218Z,7.40
2023-03-15T21:20:25.933Z,9.75
2023-03-15T21:25:27.573Z,7.80
2023-03-15T21:30:29.254Z,7.28
2023-03-15T21:35:30.813Z,7.00
2023-03-15T21:40:32.468Z,7.60
2023-03-15T21:45:34.066Z,7.45
2023-03-15T21:50:36.538Z,9.02
2023-03-15T21:55:38.182Z,8.68
2023-03-15T22:00:39.909Z,8.05
2023-03-15T22:05:41.839Z,8.13
2023-03-15T22:10:43.404Z,7.97
2023-03-15T22:15:44.997Z,9.85
2023-03-15T22:20:51.036Z,8.02
2023-03-15T22:25:55.957Z,8.73
2023-03-15T22:30:57.512Z,9.43
2023-03-15T22:35:59.379Z,10.90
2023-03-15T22:41:03.287Z,8.73
2023-03-15T22:46:05.126Z,9.38
2023-03-15T22:51:09.733Z,9.13
2023-03-15T22:56:11.386Z,8.32
2023-03-15T23:01:13.012Z,6.75
2023-03-15T23:06:15.200Z,9.38
2023-03-15T23:11:16.782Z,8.35
2023-03-15T23:16:19.521Z,6.15
2023-03-15T23:21:21.230Z,7.00
2023-03-15T23:26:25.333Z,7.53
2023-03-15T23:31:26.914Z,6.57
2023-03-15T23:36:28.505Z,6.97
2023-03-15T23:41:30.150Z,6.80
2023-03-15T23:46:36.126Z,6.38
2023-03-15T23:51:38.774Z,6.32
2023-03-15T23:56:40.445Z,7.10
